sensor_id;sensor_type;location;lat;lon;timestamp;pressure;altitude;pressure_sealevel;temperature;humidity
6829;BME280;17930;48.592;8.868;2023-02-20T00:02:03;97892.16;;;6.79;100.00
6829;BME280;17930;48.592;8.868;2023-02-20T00:04:30;97896.19;;;6.75;100.00
6829;BME280;17930;48.592;8.868;2023-02-20T00:06:57;97900.00;;;6.73;100.00
6829;BME280;17930;48.592;8.868;2023-02-20T00:09:24;97902.81;;;6.71;100.00
6829;BME280;17930;48.592;8.868;2023-02-20T00:11:50;97916.00;;;6.70;100.00
6829;BME280;17930;48.592;8.868;2023-02-20T00:14:17;97913.97;;;6.72;100.00
6829;BME280;17930;48.592;8.868;2023-02-20T00:16:46;97911.44;;;6.83;100.00
6829;BME280;17930;48.592;8.868;2023-02-20T00:19:13;97909.72;;;6.77;100.00
6829;BME280;17930;48.592;8.868;2023-02-20T00:21:44;97909.59;;;7.02;100.00
6829;BME280;17930;48.592;8.868;2023-02-20T00:24:10;97902.50;;;7.09;100.00
6829;BME280;17930;48.592;8.868;2023-02-20T00:26:37;97900.41;;;7.17;100.00
6829;BME280;17930;48.592;8.868;2023-02-20T00:29:04;97896.75;;;7.07;100.00
6829;BME280;17930;48.592;8.868;2023-02-20T00:31:31;97892.81;;;7.04;100.00
6829;BME280;17930;48.592;8.868;2023-02-20T00:33:59;97879.16;;;7.09;100.00
6829;BME280;17930;48.592;8.868;2023-02-20T00:36:26;97879.59;;;7.06;100.00
6829;BME280;17930;48.592;8.868;2023-02-20T00:38:52;97872.13;;;6.98;100.00
6829;BME280;17930;48.592;8.868;2023-02-20T00:41:19;97879.50;;;7.01;100.00
6829;BME280;17930;48.592;8.868;2023-02-20T00:43:46;97885.56;;;7.06;100.00
6829;BME280;17930;48.592;8.868;2023-02-20T00:46:13;97889.22;;;7.05;100.00
6829;BME280;17930;48.592;8.868;2023-02-20T00:48:40;97895.63;;;7.03;100.00
6829;BME280;17930;48.592;8.868;2023-02-20T00:51:09;97889.44;;;7.04;100.00
6829;BME280;17930;48.592;8.868;2023-02-20T00:53:35;97899.91;;;7.09;100.00
6829;BME280;17930;48.592;8.868;2023-02-20T00:56:02;97900.81;;;7.03;100.00
6829;BME280;17930;48.592;8.868;2023-02-20T00:58:29;97908.81;;;7.01;100.00
6829;BME280;17930;48.592;8.868;2023-02-20T01:00:55;97903.25;;;6.98;100.00
6829;BME280;17930;48.592;8.868;2023-02-20T01:03:22;97910.63;;;7.01;100.00
6829;BME280;17930;48.592;8.868;2023-02-20T01:05:49;97909.84;;;7.12;100.00
6829;BME280;17930;48.592;8.868;2023-02-20T01:08:17;97915.03;;;7.12;100.00
6829;BME280;17930;48.592;8.868;2023-02-20T01:10:44;97913.53;;;7.04;100.00
6829;BME280;17930;48.592;8.868;2023-02-20T01:13:11;97911.19;;;7.03;100.00
6829;BME280;17930;48.592;8.868;2023-02-20T01:15:37;97908.69;;;7.08;100.00
6829;BME280;17930;48.592;8.868;2023-02-20T01:18:04;97908.69;;;7.37;100.00
6829;BME280;17930;48.592;8.868;2023-02-20T01:20:32;97897.59;;;7.30;100.00
6829;BME280;17930;48.592;8.868;2023-02-20T01:22:58;97898.28;;;7.25;100.00
6829;BME280;17930;48.592;8.868;2023-02-20T01:25:27;97899.84;;;7.15;100.00
6829;BME280;17930;48.592;8.868;2023-02-20T01:27:53;97901.84;;;7.13;100.00
6829;BME280;17930;48.592;8.868;2023-02-20T01:30:20;97899.03;;;7.14;100.00
6829;BME280;17930;48.592;8.868;2023-02-20T01:32:47;97897.03;;;7.16;100.00
6829;BME280;17930;48.592;8.868;2023-02-20T01:35:14;97894.53;;;7.21;100.00
6829;BME280;17930;48.592;8.868;2023-02-20T01:37:40;97893.59;;;7.05;100.00
6829;BME280;17930;48.592;8.868;2023-02-20T01:40:09;97894.06;;;7.13;100.00
6829;BME280;17930;48.592;8.868;2023-02-20T01:42:41;97892.28;;;7.13;100.00
6829;BME280;17930;48.592;8.868;2023-02-20T01:45:15;97890.75;;;7.35;100.00
6829;BME280;17930;48.592;8.868;2023-02-20T01:47:43;97886.88;;;7.26;100.00
6829;BME280;17930;48.592;8.868;2023-02-20T01:50:11;97887.78;;;7.20;100.00
6829;BME280;17930;48.592;8.868;2023-02-20T01:52:40;97875.47;;;7.16;100.00
6829;BME280;17930;48.592;8.868;2023-02-20T01:55:11;97868.38;;;7.34;100.00
6829;BME280;17930;48.592;8.868;2023-02-20T01:57:41;97873.34;;;7.24;100.00
6829;BME280;17930;48.592;8.868;2023-02-20T02:00:13;97875.94;;;7.36;100.00
6829;BME280;17930;48.592;8.868;2023-02-20T02:02:43;97875.03;;;7.19;100.00
6829;BME280;17930;48.592;8.868;2023-02-20T02:05:11;97870.38;;;7.10;100.00
6829;BME280;17930;48.592;8.868;2023-02-20T02:07:39;97867.09;;;7.03;100.00
6829;BME280;17930;48.592;8.868;2023-02-20T02:10:07;97871.72;;;7.01;100.00
6829;BME280;17930;48.592;8.868;2023-02-20T02:12:36;97871.38;;;7.09;100.00
6829;BME280;17930;48.592;8.868;2023-02-20T02:15:12;97866.78;;;7.11;100.00
6829;BME280;17930;48.592;8.868;2023-02-20T02:17:58;97857.03;;;6.95;100.00
6829;BME280;17930;48.592;8.868;2023-02-20T02:26:56;97853.91;;;6.75;100.00
6829;BME280;17930;48.592;8.868;2023-02-20T02:38:41;97852.78;;;6.71;100.00
6829;BME280;17930;48.592;8.868;2023-02-20T02:41:17;97855.69;;;6.63;100.00
6829;BME280;17930;48.592;8.868;2023-02-20T02:43:49;97842.47;;;6.53;100.00
6829;BME280;17930;48.592;8.868;2023-02-20T02:46:22;97838.88;;;6.54;100.00
6829;BME280;17930;48.592;8.868;2023-02-20T02:48:55;97835.47;;;6.54;100.00
6829;BME280;17930;48.592;8.868;2023-02-20T02:51:28;97832.22;;;6.58;100.00
6829;BME280;17930;48.592;8.868;2023-02-20T02:54:04;97844.81;;;6.55;100.00
6829;BME280;17930;48.592;8.868;2023-02-20T02:56:33;97833.31;;;6.51;100.00
6829;BME280;17930;48.592;8.868;2023-02-20T02:59:00;97835.50;;;6.65;100.00
6829;BME280;17930;48.592;8.868;2023-02-20T03:01:28;97840.41;;;6.55;100.00
6829;BME280;17930;48.592;8.868;2023-02-20T03:03:57;97848.19;;;6.55;100.00
6829;BME280;17930;48.592;8.868;2023-02-20T03:06:27;97847.41;;;6.55;100.00
6829;BME280;17930;48.592;8.868;2023-02-20T03:09:02;97842.47;;;6.53;100.00
6829;BME280;17930;48.592;8.868;2023-02-20T03:11:32;97843.59;;;6.57;100.00
6829;BME280;17930;48.592;8.868;2023-02-20T03:14:03;97843.38;;;6.59;100.00
6829;BME280;17930;48.592;8.868;2023-02-20T03:16:59;97848.41;;;6.54;100.00
6829;BME280;17930;48.592;8.868;2023-02-20T03:19:32;97838.72;;;6.49;100.00
6829;BME280;17930;48.592;8.868;2023-02-20T03:22:06;97843.78;;;6.44;100.00
6829;BME280;17930;48.592;8.868;2023-02-20T03:24:36;97848.59;;;6.41;100.00
6829;BME280;17930;48.592;8.868;2023-02-20T03:27:22;97859.03;;;6.34;100.00
6829;BME280;17930;48.592;8.868;2023-02-20T03:29:54;97851.56;;;6.26;100.00
6829;BME280;17930;48.592;8.868;2023-02-20T03:32:26;97846.88;;;6.17;100.00
6829;BME280;17930;48.592;8.868;2023-02-20T03:35:12;97848.13;;;5.97;100.00
6829;BME280;17930;48.592;8.868;2023-02-20T03:38:01;97860.72;;;5.93;100.00
6829;BME280;17930;48.592;8.868;2023-02-20T03:40:48;97855.69;;;5.74;100.00
6829;BME280;17930;48.592;8.868;2023-02-20T03:43:34;97863.63;;;5.79;100.00
6829;BME280;17930;48.592;8.868;2023-02-20T03:46:04;97860.56;;;5.64;100.00
6829;BME280;17930;48.592;8.868;2023-02-20T03:48:33;97857.72;;;5.48;100.00
6829;BME280;17930;48.592;8.868;2023-02-20T03:51:03;97865.56;;;5.35;100.00
6829;BME280;17930;48.592;8.868;2023-02-20T03:53:32;97852.84;;;5.33;100.00
6829;BME280;17930;48.592;8.868;2023-02-20T03:56:02;97849.69;;;5.31;100.00
6829;BME280;17930;48.592;8.868;2023-02-20T03:58:33;97846.53;;;5.29;100.00
6829;BME280;17930;48.592;8.868;2023-02-20T04:01:02;97847.38;;;5.23;100.00
6829;BME280;17930;48.592;8.868;2023-02-20T04:03:35;97855.03;;;5.12;100.00
6829;BME280;17930;48.592;8.868;2023-02-20T04:06:05;97851.56;;;4.94;100.00
6829;BME280;17930;48.592;8.868;2023-02-20T04:08:37;97850.44;;;4.83;100.00
6829;BME280;17930;48.592;8.868;2023-02-20T04:11:07;97852.06;;;4.78;100.00
6829;BME280;17930;48.592;8.868;2023-02-20T04:13:36;97848.16;;;4.69;100.00
6829;BME280;17930;48.592;8.868;2023-02-20T04:16:05;97844.94;;;4.73;100.00
6829;BME280;17930;48.592;8.868;2023-02-20T04:18:31;97828.69;;;4.66;100.00
6829;BME280;17930;48.592;8.868;2023-02-20T04:21:01;97833.53;;;4.50;100.00
6829;BME280;17930;48.592;8.868;2023-02-20T04:23:31;97827.81;;;4.48;100.00
6829;BME280;17930;48.592;8.868;2023-02-20T04:26:05;97831.25;;;4.29;100.00
6829;BME280;17930;48.592;8.868;2023-02-20T04:28:33;97835.69;;;4.22;100.00
6829;BME280;17930;48.592;8.868;2023-02-20T04:31:01;97836.69;;;4.15;100.00
6829;BME280;17930;48.592;8.868;2023-02-20T04:33:27;97839.88;;;4.10;100.00
6829;BME280;17930;48.592;8.868;2023-02-20T04:35:54;97841.06;;;4.08;100.00
6829;BME280;17930;48.592;8.868;2023-02-20T04:38:23;97838.16;;;3.92;100.00
6829;BME280;17930;48.592;8.868;2023-02-20T04:40:50;97841.72;;;3.91;100.00
6829;BME280;17930;48.592;8.868;2023-02-20T04:43:18;97837.97;;;3.87;100.00
6829;BME280;17930;48.592;8.868;2023-02-20T04:45:44;97823.03;;;4.02;100.00
6829;BME280;17930;48.592;8.868;2023-02-20T04:48:11;97820.97;;;4.23;100.00
6829;BME280;17930;48.592;8.868;2023-02-20T04:50:38;97830.53;;;4.09;100.00
6829;BME280;17930;48.592;8.868;2023-02-20T04:53:05;97828.78;;;4.04;100.00
6829;BME280;17930;48.592;8.868;2023-02-20T04:55:32;97833.78;;;3.92;100.00
6829;BME280;17930;48.592;8.868;2023-02-20T04:57:59;97836.97;;;3.94;100.00
6829;BME280;17930;48.592;8.868;2023-02-20T05:00:27;97838.75;;;3.94;100.00
6829;BME280;17930;48.592;8.868;2023-02-20T05:02:53;97831.41;;;3.91;100.00
6829;BME280;17930;48.592;8.868;2023-02-20T05:05:22;97821.69;;;3.93;100.00
6829;BME280;17930;48.592;8.868;2023-02-20T05:07:53;97831.41;;;3.91;100.00
6829;BME280;17930;48.592;8.868;2023-02-20T05:10:20;97835.78;;;3.84;100.00
6829;BME280;17930;48.592;8.868;2023-02-20T05:12:47;97846.91;;;3.78;100.00
6829;BME280;17930;48.592;8.868;2023-02-20T05:15:14;97839.00;;;3.66;100.00
6829;BME280;17930;48.592;8.868;2023-02-20T05:17:43;97846.53;;;3.61;100.00
6829;BME280;17930;48.592;8.868;2023-02-20T05:20:10;97849.69;;;3.76;100.00
6829;BME280;17930;48.592;8.868;2023-02-20T05:22:37;97848.13;;;3.69;100.00
6829;BME280;17930;48.592;8.868;2023-02-20T05:25:04;97838.59;;;3.63;100.00
6829;BME280;17930;48.592;8.868;2023-02-20T05:27:31;97845.34;;;3.64;100.00
6829;BME280;17930;48.592;8.868;2023-02-20T05:29:59;97851.88;;;3.73;100.00
6829;BME280;17930;48.592;8.868;2023-02-20T05:32:28;97851.28;;;3.71;100.00
6829;BME280;17930;48.592;8.868;2023-02-20T05:34:56;97845.19;;;3.59;100.00
6829;BME280;17930;48.592;8.868;2023-02-20T05:37:25;97839.44;;;3.51;100.00
6829;BME280;17930;48.592;8.868;2023-02-20T05:39:52;97850.91;;;3.61;100.00
6829;BME280;17930;48.592;8.868;2023-02-20T05:42:19;97844.38;;;3.46;100.00
6829;BME280;17930;48.592;8.868;2023-02-20T05:44:47;97837.84;;;3.43;100.00
6829;BME280;17930;48.592;8.868;2023-02-20T05:47:15;97834.47;;;3.49;100.00
6829;BME280;17930;48.592;8.868;2023-02-20T05:49:41;97828.31;;;3.50;100.00
6829;BME280;17930;48.592;8.868;2023-02-20T05:52:11;97832.69;;;3.56;100.00
6829;BME280;17930;48.592;8.868;2023-02-20T05:54:39;97829.13;;;3.44;100.00
6829;BME280;17930;48.592;8.868;2023-02-20T05:57:07;97824.19;;;3.36;100.00
6829;BME280;17930;48.592;8.868;2023-02-20T05:59:34;97817.66;;;3.34;100.00
6829;BME280;17930;48.592;8.868;2023-02-20T06:02:01;97822.00;;;3.33;100.00
6829;BME280;17930;48.592;8.868;2023-02-20T06:04:28;97820.41;;;3.39;100.00
6829;BME280;17930;48.592;8.868;2023-02-20T06:06:55;97815.66;;;3.42;100.00
6829;BME280;17930;48.592;8.868;2023-02-20T06:09:23;97818.25;;;3.29;100.00
6829;BME280;17930;48.592;8.868;2023-02-20T06:11:52;97820.81;;;3.36;100.00
6829;BME280;17930;48.592;8.868;2023-02-20T06:14:20;97825.97;;;3.42;100.00
6829;BME280;17930;48.592;8.868;2023-02-20T06:16:48;97831.91;;;3.49;100.00
6829;BME280;17930;48.592;8.868;2023-02-20T06:19:18;97835.66;;;3.53;100.00
6829;BME280;17930;48.592;8.868;2023-02-20T06:21:47;97843.38;;;3.59;100.00
6829;BME280;17930;48.592;8.868;2023-02-20T06:24:14;97835.06;;;3.51;100.00
6829;BME280;17930;48.592;8.868;2023-02-20T06:26:42;97842.22;;;3.30;100.00
6829;BME280;17930;48.592;8.868;2023-02-20T06:29:10;97837.84;;;3.30;100.00
6829;BME280;17930;48.592;8.868;2023-02-20T06:31:37;97833.50;;;3.37;100.00
6829;BME280;17930;48.592;8.868;2023-02-20T06:34:03;97831.50;;;3.52;100.00
6829;BME280;17930;48.592;8.868;2023-02-20T06:36:34;97833.84;;;3.60;100.00
6829;BME280;17930;48.592;8.868;2023-02-20T06:39:02;97842.22;;;3.49;100.00
6829;BME280;17930;48.592;8.868;2023-02-20T06:41:29;97844.00;;;3.42;100.00
6829;BME280;17930;48.592;8.868;2023-02-20T06:43:58;97838.03;;;3.48;100.00
6829;BME280;17930;48.592;8.868;2023-02-20T06:46:25;97850.16;;;3.41;100.00
6829;BME280;17930;48.592;8.868;2023-02-20T06:48:53;97851.53;;;3.37;100.00
6829;BME280;17930;48.592;8.868;2023-02-20T06:51:23;97852.53;;;3.49;100.00
6829;BME280;17930;48.592;8.868;2023-02-20T06:53:50;97857.88;;;3.54;100.00
6829;BME280;17930;48.592;8.868;2023-02-20T06:56:18;97852.13;;;3.52;100.00
6829;BME280;17930;48.592;8.868;2023-02-20T06:58:45;97856.28;;;3.47;100.00
6829;BME280;17930;48.592;8.868;2023-02-20T07:01:13;97856.50;;;3.45;100.00
6829;BME280;17930;48.592;8.868;2023-02-20T07:03:40;97862.44;;;3.52;100.00
6829;BME280;17930;48.592;8.868;2023-02-20T07:06:07;97868.34;;;3.78;100.00
6829;BME280;17930;48.592;8.868;2023-02-20T07:08:34;97875.09;;;3.73;100.00
6829;BME280;17930;48.592;8.868;2023-02-20T07:11:00;97872.72;;;3.78;100.00
6829;BME280;17930;48.592;8.868;2023-02-20T07:13:27;97878.44;;;3.80;100.00
6829;BME280;17930;48.592;8.868;2023-02-20T07:15:54;97872.91;;;3.83;100.00
6829;BME280;17930;48.592;8.868;2023-02-20T07:18:22;97871.09;;;4.03;100.00
6829;BME280;17930;48.592;8.868;2023-02-20T07:20:49;97865.63;;;4.23;100.00
6829;BME280;17930;48.592;8.868;2023-02-20T07:23:16;97864.78;;;4.42;100.00
6829;BME280;17930;48.592;8.868;2023-02-20T07:25:42;97869.75;;;4.37;100.00
6829;BME280;17930;48.592;8.868;2023-02-20T07:28:10;97869.50;;;4.52;100.00
6829;BME280;17930;48.592;8.868;2023-02-20T07:30:36;97867.03;;;4.63;100.00
6829;BME280;17930;48.592;8.868;2023-02-20T07:33:03;97855.31;;;4.67;100.00
6829;BME280;17930;48.592;8.868;2023-02-20T07:35:31;97864.03;;;4.72;100.00
6829;BME280;17930;48.592;8.868;2023-02-20T07:37:58;97863.66;;;4.69;100.00
6829;BME280;17930;48.592;8.868;2023-02-20T07:40:25;97864.38;;;4.76;100.00
6829;BME280;17930;48.592;8.868;2023-02-20T07:42:51;97867.91;;;4.88;100.00
6829;BME280;17930;48.592;8.868;2023-02-20T07:45:18;97851.66;;;4.81;100.00
6829;BME280;17930;48.592;8.868;2023-02-20T07:47:45;97856.84;;;5.05;100.00
6829;BME280;17930;48.592;8.868;2023-02-20T07:50:13;97854.28;;;5.05;100.00
6829;BME280;17930;48.592;8.868;2023-02-20T07:52:41;97852.97;;;5.20;100.00
6829;BME280;17930;48.592;8.868;2023-02-20T07:55:08;97858.13;;;5.20;100.00
6829;BME280;17930;48.592;8.868;2023-02-20T07:57:38;97854.28;;;5.29;100.00
6829;BME280;17930;48.592;8.868;2023-02-20T08:00:06;97863.16;;;5.40;100.00
6829;BME280;17930;48.592;8.868;2023-02-20T08:02:33;97849.47;;;5.57;100.00
6829;BME280;17930;48.592;8.868;2023-02-20T08:04:59;97851.97;;;5.63;100.00
6829;BME280;17930;48.592;8.868;2023-02-20T08:07:26;97844.50;;;5.80;100.00
6829;BME280;17930;48.592;8.868;2023-02-20T08:09:54;97841.78;;;5.93;100.00
6829;BME280;17930;48.592;8.868;2023-02-20T08:12:21;97839.03;;;6.23;100.00
6829;BME280;17930;48.592;8.868;2023-02-20T08:14:48;97841.47;;;6.36;100.00
6829;BME280;17930;48.592;8.868;2023-02-20T08:17:16;97839.22;;;6.40;100.00
6829;BME280;17930;48.592;8.868;2023-02-20T08:19:43;97833.25;;;6.57;100.00
6829;BME280;17930;48.592;8.868;2023-02-20T08:22:10;97831.53;;;6.92;100.00
6829;BME280;17930;48.592;8.868;2023-02-20T08:24:36;97828.56;;;7.97;100.00
6829;BME280;17930;48.592;8.868;2023-02-20T08:27:04;97809.94;;;9.27;100.00
6829;BME280;17930;48.592;8.868;2023-02-20T08:29:31;97808.75;;;10.26;100.00
6829;BME280;17930;48.592;8.868;2023-02-20T08:31:58;97815.78;;;11.00;100.00
6829;BME280;17930;48.592;8.868;2023-02-20T08:34:24;97825.72;;;11.60;100.00
6829;BME280;17930;48.592;8.868;2023-02-20T08:36:51;97820.84;;;12.20;100.00
6829;BME280;17930;48.592;8.868;2023-02-20T08:39:18;97810.13;;;13.07;100.00
6829;BME280;17930;48.592;8.868;2023-02-20T08:41:46;97808.56;;;13.35;100.00
6829;BME280;17930;48.592;8.868;2023-02-20T08:44:14;97806.97;;;13.05;100.00
6829;BME280;17930;48.592;8.868;2023-02-20T08:46:45;97810.63;;;13.48;100.00
6829;BME280;17930;48.592;8.868;2023-02-20T08:49:12;97791.00;;;14.43;100.00
6829;BME280;17930;48.592;8.868;2023-02-20T08:51:38;97790.88;;;14.63;100.00
6829;BME280;17930;48.592;8.868;2023-02-20T08:54:05;97788.91;;;14.45;100.00
6829;BME280;17930;48.592;8.868;2023-02-20T08:56:32;97792.53;;;14.54;100.00
6829;BME280;17930;48.592;8.868;2023-02-20T08:58:59;97793.25;;;15.08;100.00
6829;BME280;17930;48.592;8.868;2023-02-20T09:01:27;97793.13;;;15.28;100.00
6829;BME280;17930;48.592;8.868;2023-02-20T09:03:54;97785.41;;;15.69;100.00
6829;BME280;17930;48.592;8.868;2023-02-20T09:06:21;97778.09;;;15.61;100.00
6829;BME280;17930;48.592;8.868;2023-02-20T09:08:50;97776.91;;;16.24;100.00
6829;BME280;17930;48.592;8.868;2023-02-20T09:11:17;97768.28;;;16.60;100.00
6829;BME280;17930;48.592;8.868;2023-02-20T09:13:45;97765.06;;;17.18;100.00
6829;BME280;17930;48.592;8.868;2023-02-20T09:16:13;97765.00;;;16.86;100.00
6829;BME280;17930;48.592;8.868;2023-02-20T09:18:42;97770.78;;;16.70;100.00
6829;BME280;17930;48.592;8.868;2023-02-20T09:21:10;97762.56;;;17.08;100.00
6829;BME280;17930;48.592;8.868;2023-02-20T09:23:36;97765.09;;;17.63;100.00
6829;BME280;17930;48.592;8.868;2023-02-20T09:26:04;97758.06;;;18.12;100.00
6829;BME280;17930;48.592;8.868;2023-02-20T09:28:31;97760.84;;;18.07;96.77
6829;BME280;17930;48.592;8.868;2023-02-20T09:30:57;97753.09;;;17.97;95.11
6829;BME280;17930;48.592;8.868;2023-02-20T09:33:25;97755.94;;;18.14;95.16
6829;BME280;17930;48.592;8.868;2023-02-20T09:35:54;97755.94;;;18.41;91.83
6829;BME280;17930;48.592;8.868;2023-02-20T09:38:22;97752.75;;;18.17;97.84
6829;BME280;17930;48.592;8.868;2023-02-20T09:40:55;97746.16;;;18.01;88.99
6829;BME280;17930;48.592;8.868;2023-02-20T09:43:31;97751.44;;;17.74;97.64
6829;BME280;17930;48.592;8.868;2023-02-20T09:46:07;97751.03;;;17.67;93.34
6829;BME280;17930;48.592;8.868;2023-02-20T09:48:47;97743.13;;;18.48;93.72
6829;BME280;17930;48.592;8.868;2023-02-20T09:51:21;97745.25;;;17.52;89.11
6829;BME280;17930;48.592;8.868;2023-02-20T09:53:55;97743.81;;;18.13;92.46
6829;BME280;17930;48.592;8.868;2023-02-20T09:56:25;97738.84;;;18.73;86.54
6829;BME280;17930;48.592;8.868;2023-02-20T09:58:57;97732.75;;;19.30;82.60
6829;BME280;17930;48.592;8.868;2023-02-20T10:01:27;97730.75;;;19.13;82.74
6829;BME280;17930;48.592;8.868;2023-02-20T10:03:55;97730.59;;;19.62;78.00
6829;BME280;17930;48.592;8.868;2023-02-20T10:06:26;97725.13;;;18.71;79.25
6829;BME280;17930;48.592;8.868;2023-02-20T10:08:54;97725.03;;;18.01;83.44
6829;BME280;17930;48.592;8.868;2023-02-20T10:11:38;97725.78;;;18.42;81.99
6829;BME280;17930;48.592;8.868;2023-02-20T10:14:30;97719.56;;;18.24;80.42
6829;BME280;17930;48.592;8.868;2023-02-20T10:17:08;97704.97;;;19.49;79.45
6829;BME280;17930;48.592;8.868;2023-02-20T10:19:46;97701.69;;;19.82;76.01
6829;BME280;17930;48.592;8.868;2023-02-20T10:22:20;97693.50;;;20.81;71.74
6829;BME280;17930;48.592;8.868;2023-02-20T10:24:59;97707.41;;;20.06;71.12
6829;BME280;17930;48.592;8.868;2023-02-20T10:27:32;97704.50;;;20.33;70.19
6829;BME280;17930;48.592;8.868;2023-02-20T10:30:04;97701.84;;;20.24;70.19
6829;BME280;17930;48.592;8.868;2023-02-20T10:32:35;97707.25;;;18.90;67.98
6829;BME280;17930;48.592;8.868;2023-02-20T10:35:07;97706.94;;;19.13;71.10
6829;BME280;17930;48.592;8.868;2023-02-20T10:37:39;97703.59;;;20.46;66.92
6829;BME280;17930;48.592;8.868;2023-02-20T10:40:15;97692.03;;;20.42;65.82
6829;BME280;17930;48.592;8.868;2023-02-20T10:42:47;97688.91;;;21.24;65.33
6829;BME280;17930;48.592;8.868;2023-02-20T10:45:22;97681.28;;;22.74;60.55
6829;BME280;17930;48.592;8.868;2023-02-20T10:47:57;97671.69;;;21.30;57.94
6829;BME280;17930;48.592;8.868;2023-02-20T10:50:32;97681.16;;;20.85;64.11
6829;BME280;17930;48.592;8.868;2023-02-20T10:53:09;97695.44;;;20.34;63.46
6829;BME280;17930;48.592;8.868;2023-02-20T10:55:41;97684.00;;;19.31;61.61
6829;BME280;17930;48.592;8.868;2023-02-20T10:58:13;97687.97;;;18.54;65.89
6829;BME280;17930;48.592;8.868;2023-02-20T11:00:46;97687.72;;;19.52;65.69
6829;BME280;17930;48.592;8.868;2023-02-20T11:03:16;97675.25;;;19.00;62.15
6829;BME280;17930;48.592;8.868;2023-02-20T11:05:47;97677.06;;;18.69;62.04
6829;BME280;17930;48.592;8.868;2023-02-20T11:08:18;97681.13;;;18.53;62.42
6829;BME280;17930;48.592;8.868;2023-02-20T11:10:46;97664.03;;;19.47;62.16
6829;BME280;17930;48.592;8.868;2023-02-20T11:13:17;97661.28;;;19.68;60.54
6829;BME280;17930;48.592;8.868;2023-02-20T11:15:48;97663.28;;;19.93;59.37
6829;BME280;17930;48.592;8.868;2023-02-20T11:18:22;97658.41;;;19.87;59.93
6829;BME280;17930;48.592;8.868;2023-02-20T11:20:51;97652.63;;;21.36;58.04
6829;BME280;17930;48.592;8.868;2023-02-20T11:23:36;97654.91;;;21.09;55.68
6829;BME280;17930;48.592;8.868;2023-02-20T11:26:21;97650.50;;;21.13;55.82
6829;BME280;17930;48.592;8.868;2023-02-20T11:28:56;97651.31;;;20.12;58.05
6829;BME280;17930;48.592;8.868;2023-02-20T11:31:24;97657.09;;;19.76;58.42
6829;BME280;17930;48.592;8.868;2023-02-20T11:33:53;97635.09;;;21.44;55.77
6829;BME280;17930;48.592;8.868;2023-02-20T11:36:23;97625.84;;;22.36;54.82
6829;BME280;17930;48.592;8.868;2023-02-20T11:38:57;97622.84;;;22.78;51.95
6829;BME280;17930;48.592;8.868;2023-02-20T11:41:27;97628.88;;;21.40;54.09
6829;BME280;17930;48.592;8.868;2023-02-20T11:44:22;97631.72;;;20.72;54.49
6829;BME280;17930;48.592;8.868;2023-02-20T11:47:17;97620.97;;;21.23;54.05
6829;BME280;17930;48.592;8.868;2023-02-20T11:49:44;97609.41;;;21.93;52.11
6829;BME280;17930;48.592;8.868;2023-02-20T11:52:16;97610.19;;;21.28;52.36
6829;BME280;17930;48.592;8.868;2023-02-20T11:54:44;97601.81;;;21.17;53.45
6829;BME280;17930;48.592;8.868;2023-02-20T11:57:21;97601.91;;;20.42;54.40
6829;BME280;17930;48.592;8.868;2023-02-20T11:59:50;97585.75;;;21.43;52.87
6829;BME280;17930;48.592;8.868;2023-02-20T12:02:26;97597.78;;;21.49;50.72
6829;BME280;17930;48.592;8.868;2023-02-20T12:05:09;97590.97;;;20.52;52.25
6829;BME280;17930;48.592;8.868;2023-02-20T12:07:39;97586.63;;;21.26;51.82
6829;BME280;17930;48.592;8.868;2023-02-20T12:10:30;97576.06;;;21.09;51.17
6829;BME280;17930;48.592;8.868;2023-02-20T12:12:58;97572.59;;;22.04;50.98
6829;BME280;17930;48.592;8.868;2023-02-20T12:15:27;97575.94;;;22.85;49.64
6829;BME280;17930;48.592;8.868;2023-02-20T12:20:47;97565.63;;;23.87;48.23
6829;BME280;17930;48.592;8.868;2023-02-20T12:23:25;97562.97;;;23.75;46.09
6829;BME280;17930;48.592;8.868;2023-02-20T12:26:04;97571.19;;;23.47;46.36
6829;BME280;17930;48.592;8.868;2023-02-20T12:28:41;97564.97;;;23.43;46.90
6829;BME280;17930;48.592;8.868;2023-02-20T12:31:21;97564.03;;;23.15;45.90
6829;BME280;17930;48.592;8.868;2023-02-20T12:33:58;97543.84;;;23.02;48.31
6829;BME280;17930;48.592;8.868;2023-02-20T12:36:34;97545.38;;;22.91;46.54
6829;BME280;17930;48.592;8.868;2023-02-20T12:39:06;97536.78;;;23.18;45.14
6829;BME280;17930;48.592;8.868;2023-02-20T12:41:47;97530.34;;;23.07;46.09
6829;BME280;17930;48.592;8.868;2023-02-20T12:44:34;97529.66;;;23.70;45.39
6829;BME280;17930;48.592;8.868;2023-02-20T12:47:14;97508.25;;;24.32;46.04
6829;BME280;17930;48.592;8.868;2023-02-20T12:50:14;97524.50;;;24.55;43.15
6829;BME280;17930;48.592;8.868;2023-02-20T12:53:00;97507.88;;;23.79;43.45
6829;BME280;17930;48.592;8.868;2023-02-20T12:55:34;97498.38;;;23.07;44.74
6829;BME280;17930;48.592;8.868;2023-02-20T12:58:14;97490.13;;;23.71;44.05
6829;BME280;17930;48.592;8.868;2023-02-20T13:00:46;97477.75;;;24.18;43.29
6829;BME280;17930;48.592;8.868;2023-02-20T13:03:19;97476.91;;;24.87;42.27
6829;BME280;17930;48.592;8.868;2023-02-20T13:05:47;97466.44;;;24.09;42.25
6829;BME280;17930;48.592;8.868;2023-02-20T13:08:20;97466.88;;;22.97;43.63
6829;BME280;17930;48.592;8.868;2023-02-20T13:10:52;97463.97;;;22.78;44.93
6829;BME280;17930;48.592;8.868;2023-02-20T13:13:23;97461.75;;;23.28;44.71
6829;BME280;17930;48.592;8.868;2023-02-20T13:15:57;97449.19;;;25.23;42.17
6829;BME280;17930;48.592;8.868;2023-02-20T13:18:33;97448.16;;;25.27;40.63
6829;BME280;17930;48.592;8.868;2023-02-20T13:21:05;97445.56;;;24.84;40.74
6829;BME280;17930;48.592;8.868;2023-02-20T13:23:36;97432.81;;;23.77;40.19
6829;BME280;17930;48.592;8.868;2023-02-20T13:29:13;97421.03;;;24.48;39.08
6829;BME280;17930;48.592;8.868;2023-02-20T13:31:45;97425.63;;;23.66;39.51
6829;BME280;17930;48.592;8.868;2023-02-20T13:34:32;97434.72;;;24.04;40.36
6829;BME280;17930;48.592;8.868;2023-02-20T13:36:59;97447.72;;;23.67;38.74
6829;BME280;17930;48.592;8.868;2023-02-20T13:39:45;97441.75;;;23.46;39.47
6829;BME280;17930;48.592;8.868;2023-02-20T13:42:32;97432.50;;;23.67;39.14
6829;BME280;17930;48.592;8.868;2023-02-20T13:45:00;97430.78;;;23.86;39.57
6829;BME280;17930;48.592;8.868;2023-02-20T13:47:32;97418.06;;;23.95;38.94
6829;BME280;17930;48.592;8.868;2023-02-20T13:50:01;97421.00;;;24.33;38.07